createdAt,value
2019-02-20T00:04:51.526Z,12.87
2019-02-20T00:09:44.398Z,13.97
2019-02-20T00:14:37.308Z,11.93
2019-02-20T00:19:30.175Z,13.80
2019-02-20T00:24:23.043Z,11.43
2019-02-20T00:29:15.914Z,10.23
2019-02-20T00:34:08.823Z,11.13
2019-02-20T00:39:01.696Z,11.97
2019-02-20T00:44:12.943Z,11.17
2019-02-20T00:49:15.650Z,8.53
2019-02-20T00:54:09.383Z,9.67
2019-02-20T00:59:02.537Z,12.17
2019-02-20T01:03:55.406Z,10.40
2019-02-20T01:08:48.399Z,11.53
2019-02-20T01:13:41.353Z,10.70
2019-02-20T01:18:34.197Z,9.97
2019-02-20T01:23:27.175Z,9.93
2019-02-20T01:28:20.060Z,10.90
2019-02-20T01:33:13.036Z,10.17
2019-02-20T01:38:05.887Z,8.43
2019-02-20T01:42:58.796Z,10.37
2019-02-20T01:47:51.643Z,9.30
2019-02-20T01:52:44.536Z,11.57
2019-02-20T01:57:37.453Z,16.13
2019-02-20T02:02:30.340Z,13.37
2019-02-20T02:07:24.526Z,12.23
2019-02-20T02:12:17.349Z,11.30
2019-02-20T02:17:10.219Z,10.53
2019-02-20T02:22:03.072Z,9.33
2019-02-20T02:26:55.965Z,6.77
2019-02-20T02:31:48.875Z,12.00
2019-02-20T02:36:41.694Z,8.67
2019-02-20T02:41:34.591Z,15.77
2019-02-20T02:46:27.416Z,9.80
2019-02-20T02:51:20.296Z,12.37
2019-02-20T02:56:13.174Z,13.50
2019-02-20T03:01:06.211Z,13.90
2019-02-20T03:05:59.067Z,11.27
2019-02-20T03:10:52.023Z,11.20
2019-02-20T03:15:44.844Z,8.23
2019-02-20T03:20:37.748Z,10.93
2019-02-20T03:25:30.553Z,9.87
2019-02-20T03:30:23.466Z,10.00
2019-02-20T03:35:16.382Z,13.13
2019-02-20T03:40:09.681Z,12.63
2019-02-20T03:45:03.897Z,11.83
2019-02-20T03:49:58.548Z,11.43
2019-02-20T03:54:51.409Z,8.50
2019-02-20T03:59:44.748Z,12.90
2019-02-20T04:04:38.745Z,11.93
2019-02-20T04:09:31.566Z,9.43
2019-02-20T04:14:25.687Z,16.37
2019-02-20T04:19:18.570Z,15.83
2019-02-20T04:24:11.503Z,10.33
2019-02-20T04:29:04.339Z,12.13
2019-02-20T04:33:57.205Z,16.43
2019-02-20T04:38:50.080Z,11.73
2019-02-20T04:43:42.945Z,12.07
2019-02-20T04:48:35.807Z,19.67
2019-02-20T04:53:28.696Z,16.50
2019-02-20T04:58:22.717Z,13.30
2019-02-20T05:03:17.484Z,15.80
2019-02-20T05:08:10.367Z,13.10
2019-02-20T05:13:03.224Z,15.87
2019-02-20T05:17:56.093Z,11.07
2019-02-20T05:22:48.947Z,15.13
2019-02-20T05:27:41.864Z,14.83
2019-02-20T05:32:34.746Z,10.53
2019-02-20T05:37:27.623Z,12.13
2019-02-20T05:42:20.486Z,10.53
2019-02-20T05:47:13.393Z,16.90
2019-02-20T05:52:06.250Z,10.17
2019-02-20T05:56:59.110Z,11.37
2019-02-20T06:01:52.009Z,16.77
2019-02-20T06:06:44.900Z,14.93
2019-02-20T06:11:37.763Z,14.50
2019-02-20T06:16:30.639Z,17.97
2019-02-20T06:21:23.514Z,14.87
2019-02-20T06:26:17.763Z,13.07
2019-02-20T06:31:10.651Z,14.33
2019-02-20T06:36:03.521Z,13.50
2019-02-20T06:40:56.398Z,16.13
2019-02-20T06:45:49.248Z,20.90
2019-02-20T06:50:42.140Z,17.73
2019-02-20T06:55:35.009Z,19.10
2019-02-20T07:00:27.895Z,18.33
2019-02-20T07:05:38.929Z,19.03
2019-02-20T07:11:11.087Z,18.33
2019-02-20T07:16:56.677Z,19.20
2019-02-20T07:22:33.980Z,19.50
2019-02-20T07:28:22.917Z,23.03
2019-02-20T07:33:15.805Z,23.23
2019-02-20T07:38:10.981Z,23.53
2019-02-20T07:43:03.842Z,23.73
2019-02-20T07:47:56.707Z,26.10
2019-02-20T07:52:50.857Z,24.20
2019-02-20T07:57:44.875Z,26.80
2019-02-20T08:02:37.738Z,27.77
2019-02-20T08:07:31.862Z,28.40
2019-02-20T08:12:24.765Z,24.87
2019-02-20T08:17:17.661Z,29.00
2019-02-20T08:22:10.618Z,28.03
2019-02-20T08:27:03.524Z,28.83
2019-02-20T08:31:56.400Z,23.03
2019-02-20T08:36:49.280Z,26.03
2019-02-20T08:41:42.168Z,23.20
2019-02-20T08:46:35.073Z,26.93
2019-02-20T08:51:27.928Z,28.07
2019-02-20T08:56:20.794Z,27.13
2019-02-20T09:01:13.678Z,27.07
2019-02-20T09:06:06.533Z,32.80
2019-02-20T09:10:59.434Z,29.47
2019-02-20T09:15:52.358Z,30.63
2019-02-20T09:20:45.230Z,38.80
2019-02-20T09:25:41.697Z,33.33
2019-02-20T09:30:34.167Z,37.00
2019-02-20T09:35:27.017Z,36.40
2019-02-20T09:40:19.900Z,35.00
2019-02-20T09:45:12.823Z,33.27
2019-02-20T09:50:06.684Z,34.63
2019-02-20T09:54:59.577Z,39.07
2019-02-20T09:59:52.451Z,35.23
2019-02-20T10:04:45.290Z,36.37
2019-02-20T10:09:38.178Z,34.43
2019-02-20T10:14:31.026Z,32.03
2019-02-20T10:19:28.927Z,35.57
2019-02-20T10:24:25.687Z,33.33
2019-02-20T10:29:22.609Z,30.80
2019-02-20T10:34:20.282Z,28.80
2019-02-20T10:39:17.250Z,27.90
2019-02-20T10:44:15.943Z,21.70
2019-02-20T10:49:12.393Z,22.97
2019-02-20T10:54:09.734Z,25.73
2019-02-20T10:59:05.449Z,21.37
2019-02-20T11:04:02.755Z,19.23
2019-02-20T11:09:00.508Z,20.83
2019-02-20T11:13:56.427Z,20.57
2019-02-20T11:18:49.354Z,15.20
2019-02-20T11:23:45.352Z,12.80
2019-02-20T11:28:38.919Z,15.33
2019-02-20T11:33:31.810Z,15.77
2019-02-20T11:38:24.679Z,17.00
2019-02-20T11:43:17.555Z,18.33
2019-02-20T11:48:10.433Z,16.13
2019-02-20T11:53:03.311Z,15.83
2019-02-20T11:58:00.772Z,15.97
2019-02-20T12:02:50.917Z,13.57
2019-02-20T12:07:43.783Z,13.33
2019-02-20T12:12:36.648Z,12.53
2019-02-20T12:17:29.543Z,13.03
2019-02-20T12:22:23.174Z,8.67
2019-02-20T12:27:16.051Z,9.10
2019-02-20T12:32:08.947Z,9.00
2019-02-20T12:37:03.773Z,7.83
2019-02-20T12:41:56.647Z,7.33
2019-02-20T12:46:49.540Z,6.60
2019-02-20T12:51:42.432Z,8.60
2019-02-20T12:56:43.422Z,8.87
2019-02-20T13:01:30.138Z,8.57
2019-02-20T13:06:23.015Z,6.60
2019-02-20T13:11:15.858Z,8.37
2019-02-20T13:16:09.727Z,9.00
2019-02-20T13:21:02.818Z,10.33
2019-02-20T13:25:55.679Z,8.80
2019-02-20T13:30:48.576Z,7.40
2019-02-20T13:35:41.454Z,7.00
2019-02-20T13:40:34.465Z,6.40
2019-02-20T13:45:27.392Z,6.57
2019-02-20T13:50:20.393Z,7.20
2019-02-20T13:55:13.395Z,7.57
2019-02-20T14:00:07.818Z,5.53
2019-02-20T14:05:00.717Z,8.27
2019-02-20T14:09:53.827Z,6.33
2019-02-20T14:14:46.711Z,9.77
2019-02-20T14:19:39.711Z,6.70
2019-02-20T14:24:33.089Z,5.60
2019-02-20T14:29:26.045Z,5.13
2019-02-20T14:34:21.231Z,7.30
2019-02-20T14:39:14.158Z,5.80
2019-02-20T14:44:07.048Z,8.67
2019-02-20T14:48:59.933Z,7.57
2019-02-20T14:53:54.310Z,8.50
2019-02-20T14:58:48.875Z,7.57
2019-02-20T15:03:41.890Z,6.90
2019-02-20T15:08:34.871Z,7.27
2019-02-20T15:13:28.151Z,7.93
2019-02-20T15:18:21.070Z,6.63
2019-02-20T15:23:13.950Z,7.13
2019-02-20T15:28:07.034Z,7.97
2019-02-20T15:33:00.185Z,6.27
2019-02-20T15:37:53.055Z,6.33
2019-02-20T15:42:46.049Z,8.33
2019-02-20T15:47:38.942Z,10.37
2019-02-20T15:52:32.008Z,10.20
2019-02-20T15:57:24.880Z,8.73
2019-02-20T16:02:17.832Z,8.40
2019-02-20T16:07:10.686Z,8.40
2019-02-20T16:12:03.675Z,12.60
2019-02-20T16:16:56.530Z,12.20
2019-02-20T16:21:49.419Z,9.23
2019-02-20T16:26:42.287Z,10.63
2019-02-20T16:31:35.182Z,11.97
2019-02-20T16:36:28.451Z,10.33
2019-02-20T16:41:21.449Z,10.37
2019-02-20T16:46:14.435Z,8.13
2019-02-20T16:51:07.317Z,10.13
2019-02-20T16:56:00.188Z,9.47
2019-02-20T17:00:53.180Z,8.43
2019-02-20T17:05:48.437Z,11.73
2019-02-20T17:10:40.894Z,10.70
2019-02-20T17:15:33.878Z,9.20
2019-02-20T17:20:26.763Z,9.20
2019-02-20T17:25:20.561Z,10.23
2019-02-20T17:30:14.110Z,11.10
2019-02-20T17:35:07.856Z,9.97
2019-02-20T17:40:00.823Z,9.33
2019-02-20T17:44:53.804Z,11.17
2019-02-20T17:49:46.673Z,11.17
2019-02-20T17:54:39.548Z,13.10
2019-02-20T17:59:32.413Z,10.53
2019-02-20T18:04:25.332Z,10.33
2019-02-20T18:09:20.343Z,12.47
2019-02-20T18:14:13.295Z,9.70
2019-02-20T18:19:06.180Z,23.23
2019-02-20T18:23:59.078Z,15.00
2019-02-20T18:28:51.945Z,13.73
2019-02-20T18:33:44.822Z,16.10
2019-02-20T18:38:37.706Z,14.13
2019-02-20T18:43:30.577Z,19.47
2019-02-20T18:48:23.464Z,15.57
2019-02-20T18:53:16.310Z,14.70
2019-02-20T18:58:09.300Z,17.53
2019-02-20T19:03:02.312Z,15.33
2019-02-20T19:07:55.304Z,16.80
2019-02-20T19:13:33.345Z,14.83
2019-02-20T19:19:26.601Z,18.90
2019-02-20T19:25:15.961Z,15.47
2019-02-20T19:31:11.378Z,17.97
2019-02-20T19:37:01.605Z,15.83
2019-02-20T19:43:04.941Z,17.07
2019-02-20T19:48:38.023Z,12.33
2019-02-20T19:53:58.621Z,13.00
2019-02-20T19:59:54.344Z,17.30
2019-02-20T20:05:54.000Z,13.20
2019-02-20T20:11:24.652Z,16.50
2019-02-20T20:17:39.866Z,12.60
2019-02-20T20:22:54.725Z,14.33
2019-02-20T20:29:05.842Z,12.70
2019-02-20T20:35:16.874Z,12.97
2019-02-20T20:40:31.766Z,16.17
2019-02-20T20:46:25.181Z,12.93
2019-02-20T20:52:39.174Z,14.37
2019-02-20T20:58:16.425Z,16.17
2019-02-20T21:03:14.146Z,15.80
2019-02-20T21:08:22.351Z,12.23
2019-02-20T21:14:00.914Z,15.33
2019-02-20T21:20:12.358Z,15.63
2019-02-20T21:25:55.982Z,17.83
2019-02-20T21:31:41.172Z,15.87
2019-02-20T21:36:45.389Z,13.03
2019-02-20T21:41:56.098Z,14.87
2019-02-20T21:47:56.221Z,15.07
2019-02-20T21:53:51.577Z,15.57
2019-02-20T21:59:54.037Z,14.63
2019-02-20T22:05:51.137Z,14.30
2019-02-20T22:11:47.808Z,11.03
2019-02-20T22:17:46.885Z,14.90
2019-02-20T22:23:37.520Z,11.40
2019-02-20T22:29:34.131Z,15.40
2019-02-20T22:34:55.622Z,16.93
2019-02-20T22:40:31.176Z,14.13
2019-02-20T22:46:30.447Z,13.23
2019-02-20T22:51:49.052Z,14.17
2019-02-20T22:57:37.943Z,15.07
2019-02-20T23:03:41.822Z,15.47
2019-02-20T23:09:47.890Z,13.67
2019-02-20T23:14:57.181Z,14.80
2019-02-20T23:19:50.034Z,16.27
2019-02-20T23:24:44.032Z,14.63
2019-02-20T23:29:36.902Z,13.50
2019-02-20T23:34:31.267Z,12.47
2019-02-20T23:39:24.359Z,14.00
2019-02-20T23:44:17.261Z,12.50
2019-02-20T23:49:10.129Z,15.13
2019-02-20T23:54:03.022Z,16.53
2019-02-20T23:58:55.876Z,15.17
